Overview Statistics Trail Chart Weather Telemetry Raw packets
 

This is the latest recevied weather packets stored in our database for station/object SV9FBP-13. If no packets are shown the sender has not sent any weather packets the latest 10 day(s).

<< 6 7 8 9 10 11 12 >>
Time Temp. Humidity Pressure Rain* Wind** Luminosity Snow
1788486863 26.67° C 57% 1006.8 hPa 0 mm - - -
1788485961 27.22° C 52% 1006.8 hPa 0 mm - - -
1788485058 27.22° C 50% 1006.9 hPa 0 mm - - -
1788484156 26.67° C 55% 1006.9 hPa 0 mm - - -
1788483254 27.22° C 53% 1007.1 hPa 0 mm - - -
1788482352 27.22° C 52% 1007.1 hPa 0 mm - - -
1788481450 27.78° C 44% 1007 hPa 0 mm - - -
1788480548 27.78° C 43% 1007 hPa 0 mm - - -
1788479646 27.78° C 44% 1006.9 hPa 0 mm - - -
1788478743 27.22° C 50% 1007.1 hPa 0 mm - - -
1788477841 27.22° C 53% 1007.2 hPa 0 mm - - -
1788476938 27.22° C 51% 1007.3 hPa 0 mm - - -
1788476037 27.22° C 51% 1007.5 hPa 0 mm - - -
1788475134 27.22° C 50% 1007.6 hPa 0 mm - - -
1788474232 27.78° C 43% 1007.5 hPa 0 mm - - -
1788473330 27.78° C 40% 1007.7 hPa 0 mm - - -
1788472429 27.78° C 39% 1007.7 hPa 0 mm - - -
1788471526 27.78° C 39% 1007.5 hPa 0 mm - - -
1788470624 27.78° C 42% 1007.4 hPa 0 mm - - -
1788469722 27.22° C 49% 1007.4 hPa 0 mm - - -
1788468820 28.33° C 38% 1007.4 hPa 0 mm - - -
1788467918 28.89° C 32% 1007.1 hPa 0 mm - - -
1788467016 29.44° C 26% 1007.3 hPa 0 mm - - -
1788466113 28.89° C 26% 1007.1 hPa 0 mm - - -
1788465212 26.67° C 50% 1007.3 hPa 0 mm - - -

* Rain latest hour (hover to see other rain measurements)
** Current wind speed in m/s (hover to see current wind gust speed)